Time;durP1;ratioP1;P1;durP2;ratioP2;P2;SDS_P1;SDS_P2;PMS_P1;PMS_P2;Temp;Humidity;BMP_temperature;BMP_pressure;BME280_temperature;BME280_humidity;BME280_pressure;Samples;Min_cycle;Max_cycle;Signal;HPM_P1;HPM_P2
2021/11/05 00:00:28;;;;;;;1999.90;999.90;;;3.30;99.90;;;;;;5113628;28;20055;-80
2021/11/05 00:02:54;;;;;;;1999.90;999.90;;;3.30;99.90;;;;;;5113723;28;20085;-80
2021/11/05 00:05:21;;;;;;;1999.90;999.90;;;3.30;99.90;;;;;;5095302;28;20374;-82
2021/11/05 00:07:48;;;;;;;1999.90;999.90;;;3.20;99.90;;;;;;5113162;28;20074;-78
2021/11/05 00:10:14;;;;;;;1999.90;999.90;;;3.10;99.90;;;;;;5113335;28;20019;-81
2021/11/05 00:12:40;;;;;;;1999.90;999.90;;;3.10;99.90;;;;;;5113431;28;20060;-79
2021/11/05 00:15:06;;;;;;;1999.90;999.90;;;3.10;99.90;;;;;;5113101;28;20098;-79
2021/11/05 00:17:32;;;;;;;1999.90;999.90;;;3.00;99.90;;;;;;5113296;28;20032;-79
2021/11/05 00:19:57;;;;;;;1999.90;999.90;;;3.00;99.90;;;;;;5113228;28;20031;-80
2021/11/05 00:22:23;;;;;;;1999.90;999.90;;;3.00;99.90;;;;;;5095783;28;20115;-82
2021/11/05 00:24:49;;;;;;;1999.90;999.90;;;3.00;99.90;;;;;;5113633;28;20039;-81
2021/11/05 00:27:15;;;;;;;1999.90;999.90;;;2.90;99.90;;;;;;5113626;28;20114;-78
2021/11/05 00:29:43;;;;;;;1999.90;999.90;;;2.80;99.90;;;;;;5113881;28;20091;-82
2021/11/05 00:32:10;;;;;;;1999.90;999.90;;;2.80;99.90;;;;;;5113215;28;20069;-80
2021/11/05 00:34:36;;;;;;;1999.90;999.90;;;2.70;99.90;;;;;;5113318;28;20031;-80
2021/11/05 00:37:02;;;;;;;1999.90;999.90;;;2.70;99.90;;;;;;5113350;28;20028;-80
2021/11/05 00:39:28;;;;;;;1999.90;999.90;;;2.80;99.90;;;;;;5113458;28;20059;-80
2021/11/05 00:41:53;;;;;;;1999.90;999.90;;;2.80;99.90;;;;;;5113191;28;20023;-81
2021/11/05 00:44:19;;;;;;;1999.90;999.90;;;2.80;99.90;;;;;;5097959;28;20062;-79
2021/11/05 00:46:45;;;;;;;1999.90;999.90;;;2.80;99.90;;;;;;5116676;28;20024;-78
2021/11/05 00:49:10;;;;;;;1999.90;999.90;;;2.70;99.90;;;;;;5116878;28;20044;-80
2021/11/05 00:51:36;;;;;;;1999.90;999.90;;;2.70;99.90;;;;;;5116788;28;20439;-79
2021/11/05 00:54:02;;;;;;;1999.90;999.90;;;2.80;99.90;;;;;;5098181;28;20040;-81
2021/11/05 00:56:29;;;;;;;1999.90;999.90;;;2.70;99.90;;;;;;5116790;28;20052;-81
2021/11/05 00:58:54;;;;;;;1999.90;999.90;;;2.60;99.90;;;;;;5098355;28;20085;-80
2021/11/05 01:01:20;;;;;;;1999.90;999.90;;;2.70;99.90;;;;;;5116520;28;20034;-79
2021/11/05 01:03:46;;;;;;;1999.90;999.90;;;2.60;99.90;;;;;;5116251;28;20080;-79
2021/11/05 01:06:14;;;;;;;1999.90;999.90;;;2.60;99.90;;;;;;5098272;28;20040;-81
2021/11/05 01:08:40;;;;;;;1999.90;999.90;;;2.60;99.90;;;;;;5116173;28;20055;-82
2021/11/05 01:11:06;;;;;;;1999.90;999.90;;;2.50;99.90;;;;;;5116456;28;20059;-79
2021/11/05 01:13:31;;;;;;;1999.90;999.90;;;2.60;99.90;;;;;;5098163;28;20120;-79
2021/11/05 01:15:57;;;;;;;1999.90;999.90;;;2.60;99.90;;;;;;5098059;28;20375;-80
2021/11/05 01:18:23;;;;;;;1999.90;999.90;;;2.50;99.90;;;;;;5097852;28;20371;-81
2021/11/05 01:20:49;;;;;;;1999.90;999.90;;;2.50;99.90;;;;;;5116250;28;20037;-80
2021/11/05 01:23:14;;;;;;;1999.90;999.90;;;2.50;99.90;;;;;;5116302;28;20042;-81
2021/11/05 01:25:40;;;;;;;1999.90;999.90;;;2.50;99.90;;;;;;5116427;28;20016;-82
2021/11/05 01:28:06;;;;;;;1999.90;999.90;;;2.40;99.90;;;;;;5116712;28;20048;-82
2021/11/05 01:30:32;;;;;;;1999.90;999.90;;;2.50;99.90;;;;;;5116168;28;20101;-82
2021/11/05 01:33:06;;;;;;;1999.90;999.90;;;2.60;99.90;;;;;;5116064;28;20397;-81
2021/11/05 01:35:32;;;;;;;1999.90;999.90;;;2.50;99.90;;;;;;5116171;28;20077;-81
2021/11/05 01:37:58;;;;;;;1999.90;999.90;;;2.50;99.90;;;;;;5115869;28;20024;-83
2021/11/05 01:40:24;;;;;;;1999.90;999.90;;;2.50;99.90;;;;;;5116012;28;20034;-81
2021/11/05 01:42:49;;;;;;;1999.90;999.90;;;2.50;99.90;;;;;;5115955;28;20085;-81
2021/11/05 01:45:15;;;;;;;1999.90;999.90;;;2.40;99.90;;;;;;5115384;28;20019;-80
2021/11/05 01:47:41;;;;;;;1999.90;999.90;;;2.50;99.90;;;;;;5115879;28;20099;-81
2021/11/05 01:50:09;;;;;;;1999.90;999.90;;;2.50;99.90;;;;;;5097680;28;20047;-81
2021/11/05 01:52:37;;;;;;;1999.90;999.90;;;2.50;99.90;;;;;;5115707;28;20505;-80
2021/11/05 01:55:03;;;;;;;1999.90;999.90;;;2.50;99.90;;;;;;5114467;28;20077;-81
2021/11/05 01:57:29;;;;;;;1999.90;999.90;;;2.50;99.90;;;;;;5097282;28;20027;-82
2021/11/05 01:59:54;;;;;;;1999.90;999.90;;;2.50;99.90;;;;;;5097264;28;20490;-80
2021/11/05 02:02:20;;;;;;;1999.90;999.90;;;2.40;99.90;;;;;;5115397;28;20512;-80
2021/11/05 02:04:46;;;;;;;1999.90;999.90;;;2.30;99.90;;;;;;5115546;28;20103;-80
2021/11/05 02:07:13;;;;;;;1999.90;999.90;;;2.30;99.90;;;;;;5115393;28;20027;-81
2021/11/05 02:09:40;;;;;;;1999.90;999.90;;;2.30;99.90;;;;;;5115320;28;20455;-81
2021/11/05 02:12:06;;;;;;;1999.90;999.90;;;2.30;99.90;;;;;;5096934;28;20027;-80
2021/11/05 02:14:32;;;;;;;1999.90;999.90;;;2.30;99.90;;;;;;5115087;28;20020;-81
2021/11/05 02:17:00;;;;;;;1999.90;999.90;;;2.30;99.90;;;;;;5115205;28;20028;-81
2021/11/05 02:19:29;;;;;;;1999.90;999.90;;;2.30;99.90;;;;;;5115161;28;20153;-79
2021/11/05 02:21:56;;;;;;;1999.90;999.90;;;2.30;99.90;;;;;;5097121;28;20024;-81
2021/11/05 02:24:23;;;;;;;1999.90;999.90;;;2.40;99.90;;;;;;5114944;28;20045;-82
2021/11/05 02:26:50;;;;;;;1999.90;999.90;;;2.40;99.90;;;;;;5114963;28;20024;-82
2021/11/05 02:29:17;;;;;;;1999.90;999.90;;;2.30;99.90;;;;;;5114935;28;20099;-81
2021/11/05 02:31:43;;;;;;;1999.90;999.90;;;2.30;99.90;;;;;;5114847;28;20020;-81
2021/11/05 02:34:09;;;;;;;1999.90;999.90;;;2.30;99.90;;;;;;5114701;28;20035;-81
2021/11/05 02:36:35;;;;;;;1999.90;999.90;;;2.30;99.90;;;;;;5114792;28;20065;-81
2021/11/05 02:39:07;;;;;;;1999.90;999.90;;;2.40;99.90;;;;;;5114959;28;20447;-81
2021/11/05 02:41:44;;;;;;;1999.90;999.90;;;2.30;99.90;;;;;;5096401;28;20383;-81
2021/11/05 02:44:09;;;;;;;1999.90;999.90;;;2.30;99.90;;;;;;5114599;28;20019;-82
2021/11/05 02:46:35;;;;;;;1999.90;999.90;;;2.30;99.90;;;;;;5114367;28;20031;-82
2021/11/05 02:49:04;;;;;;;1999.90;999.90;;;2.20;99.90;;;;;;5114468;28;20046;-83
2021/11/05 02:51:29;;;;;;;1999.90;999.90;;;2.30;99.90;;;;;;5114658;28;20032;-81
2021/11/05 02:53:56;;;;;;;1999.90;999.90;;;2.20;99.90;;;;;;5114063;28;20046;-80
2021/11/05 02:56:22;;;;;;;1999.90;999.90;;;2.20;99.90;;;;;;5096353;28;20031;-82
2021/11/05 02:58:49;;;;;;;1999.90;999.90;;;2.10;99.90;;;;;;5114226;28;20024;-81
2021/11/05 03:01:15;;;;;;;1999.90;999.90;;;2.10;99.90;;;;;;5114047;28;20039;-83
2021/11/05 03:03:41;;;;;;;1999.90;999.90;;;2.10;99.90;;;;;;5114108;28;20030;-81
2021/11/05 03:06:07;;;;;;;1999.90;999.90;;;2.10;99.90;;;;;;5113707;28;20023;-81
2021/11/05 03:08:33;;;;;;;1999.90;999.90;;;2.10;99.90;;;;;;5114424;28;20028;-82
2021/11/05 03:10:58;;;;;;;1999.90;999.90;;;2.20;99.90;;;;;;5114447;28;20046;-81
2021/11/05 03:13:24;;;;;;;1999.90;999.90;;;2.10;99.90;;;;;;5114028;28;20036;-79
2021/11/05 03:15:49;;;;;;;1999.90;999.90;;;2.10;99.90;;;;;;5114208;28;20024;-81
2021/11/05 03:18:17;;;;;;;1999.90;999.90;;;2.10;99.90;;;;;;5096084;28;20096;-82
2021/11/05 03:20:44;;;;;;;1999.90;999.90;;;2.10;99.90;;;;;;5113985;28;20103;-82
2021/11/05 03:23:11;;;;;;;1999.90;999.90;;;2.20;99.90;;;;;;5095814;28;20030;-80
2021/11/05 03:25:37;;;;;;;1999.90;999.90;;;2.10;99.90;;;;;;5113985;28;20019;-81
2021/11/05 03:28:03;;;;;;;1999.90;999.90;;;2.20;99.90;;;;;;5095703;28;20020;-81
2021/11/05 03:30:29;;;;;;;1999.90;999.90;;;2.10;99.90;;;;;;5113720;28;20019;-80
2021/11/05 03:32:55;;;;;;;1999.90;999.90;;;2.10;99.90;;;;;;5113867;28;20038;-81
2021/11/05 03:35:21;;;;;;;1999.90;999.90;;;2.00;99.90;;;;;;5095503;28;20110;-80
2021/11/05 03:37:46;;;;;;;1999.90;999.90;;;2.00;99.90;;;;;;5114049;28;20019;-81
2021/11/05 03:40:14;;;;;;;1999.90;999.90;;;2.00;99.90;;;;;;5095997;28;20035;-81
2021/11/05 03:42:40;;;;;;;1999.90;999.90;;;2.00;99.90;;;;;;5113951;28;20023;-81
2021/11/05 03:45:06;;;;;;;1999.90;999.90;;;2.00;99.90;;;;;;5113736;28;20046;-80
2021/11/05 03:47:32;;;;;;;1999.90;999.90;;;2.00;99.90;;;;;;5113682;28;20024;-81
2021/11/05 03:49:58;;;;;;;1999.90;999.90;;;2.10;99.90;;;;;;5113838;28;20050;-81
2021/11/05 03:52:24;;;;;;;1999.90;999.90;;;2.10;99.90;;;;;;5113218;28;20016;-81
2021/11/05 03:54:50;;;;;;;1999.90;999.90;;;2.10;99.90;;;;;;5113808;28;20031;-80
2021/11/05 03:57:15;;;;;;;1999.90;999.90;;;2.20;99.90;;;;;;5095469;28;20020;-78
2021/11/05 03:59:41;;;;;;;1999.90;999.90;;;2.30;99.90;;;;;;5113929;28;20024;-81
2021/11/05 04:02:07;;;;;;;1999.90;999.90;;;2.40;99.90;;;;;;5113698;28;20045;-81
2021/11/05 04:04:33;;;;;;;1999.90;999.90;;;2.40;99.90;;;;;;5113140;28;20221;-81
2021/11/05 04:06:59;;;;;;;1999.90;999.90;;;2.50;99.90;;;;;;5113657;28;20493;-79
2021/11/05 04:09:24;;;;;;;1999.90;999.90;;;2.60;99.90;;;;;;5113410;28;20019;-80
2021/11/05 04:11:50;;;;;;;1999.90;999.90;;;2.70;99.90;;;;;;5113412;28;20035;-79
2021/11/05 04:14:16;;;;;;;1999.90;999.90;;;2.70;99.90;;;;;;5095073;28;20039;-81
2021/11/05 04:16:41;;;;;;;1999.90;999.90;;;2.70;99.90;;;;;;5095298;28;20030;-82
2021/11/05 04:19:08;;;;;;;1999.90;999.90;;;2.70;99.90;;;;;;5098428;28;20039;-81
2021/11/05 04:21:34;;;;;;;1999.90;999.90;;;2.80;99.90;;;;;;5117128;28;20023;-80
2021/11/05 04:24:01;;;;;;;1999.90;999.90;;;2.80;99.90;;;;;;5117136;28;20038;-81
2021/11/05 04:26:28;;;;;;;1999.90;999.90;;;2.80;99.90;;;;;;5098961;28;20360;-80
2021/11/05 04:28:54;;;;;;;1999.90;999.90;;;2.80;99.90;;;;;;5117277;28;20816;-80
2021/11/05 04:31:19;;;;;;;1999.90;999.90;;;2.80;99.90;;;;;;5098996;28;20061;-80
2021/11/05 04:33:45;;;;;;;1999.90;999.90;;;2.70;99.90;;;;;;5098859;28;20039;-80
2021/11/05 04:36:11;;;;;;;1999.90;999.90;;;2.80;99.90;;;;;;5117183;28;20430;-82
2021/11/05 04:38:37;;;;;;;1999.90;999.90;;;2.90;99.90;;;;;;5116946;28;20023;-81
2021/11/05 04:41:03;;;;;;;1999.90;999.90;;;2.90;99.90;;;;;;5116894;28;20024;-81
2021/11/05 04:43:29;;;;;;;1999.90;999.90;;;2.90;99.90;;;;;;5117118;28;20110;-81
2021/11/05 04:45:55;;;;;;;1999.90;999.90;;;2.90;99.90;;;;;;5098397;28;20483;-79
2021/11/05 04:48:21;;;;;;;1999.90;999.90;;;3.00;99.90;;;;;;5098620;28;20054;-80
2021/11/05 04:50:47;;;;;;;1999.90;999.90;;;3.00;99.90;;;;;;5116702;28;20023;-81
2021/11/05 04:53:12;;;;;;;1999.90;999.90;;;3.10;99.90;;;;;;5098272;28;20035;-79
2021/11/05 04:55:38;;;;;;;1999.90;999.90;;;3.20;99.90;;;;;;5116641;28;20409;-80
2021/11/05 04:58:04;;;;;;;1999.90;999.90;;;3.30;99.90;;;;;;5098655;28;20028;-81
2021/11/05 05:00:30;;;;;;;1999.90;999.90;;;3.30;99.90;;;;;;5116497;28;20568;-79
2021/11/05 05:02:56;;;;;;;1999.90;999.90;;;3.30;99.90;;;;;;5098038;28;20080;-78
2021/11/05 05:05:24;;;;;;;1999.90;999.90;;;3.30;99.90;;;;;;5116544;28;20061;-80
2021/11/05 05:07:50;;;;;;;1999.90;999.90;;;3.40;99.90;;;;;;5116493;28;20020;-79
2021/11/05 05:10:17;;;;;;;1999.90;999.90;;;3.40;99.90;;;;;;5116156;28;20024;-82
2021/11/05 05:12:43;;;;;;;1999.90;999.90;;;3.40;99.90;;;;;;5115826;28;20039;-79
2021/11/05 05:15:12;;;;;;;1999.90;999.90;;;3.40;99.90;;;;;;5116001;28;20020;-80
2021/11/05 05:17:38;;;;;;;1999.90;999.90;;;3.50;99.90;;;;;;5116601;28;20027;-80
2021/11/05 05:20:06;;;;;;;1999.90;999.90;;;3.50;99.90;;;;;;5116419;28;20028;-80
2021/11/05 05:22:32;;;;;;;1999.90;999.90;;;3.50;99.90;;;;;;5116172;28;20051;-81
2021/11/05 05:24:58;;;;;;;1999.90;999.90;;;3.60;99.90;;;;;;5116028;28;20483;-81
2021/11/05 05:27:24;;;;;;;1999.90;999.90;;;3.60;99.90;;;;;;5098070;28;20486;-81
2021/11/05 05:29:50;;;;;;;1999.90;999.90;;;3.60;99.90;;;;;;5097452;28;20348;-82
2021/11/05 05:32:16;;;;;;;1999.90;999.90;;;3.60;99.90;;;;;;5115979;28;20016;-81
2021/11/05 05:34:41;;;;;;;1999.90;999.90;;;3.60;99.90;;;;;;5115437;28;20034;-81
2021/11/05 05:37:07;;;;;;;1999.90;999.90;;;3.60;99.90;;;;;;5115828;28;20454;-82
2021/11/05 05:39:33;;;;;;;1999.90;999.90;;;3.70;99.90;;;;;;5115963;28;20031;-80
2021/11/05 05:41:59;;;;;;;1999.90;999.90;;;3.60;99.90;;;;;;5115768;28;20485;-82
2021/11/05 05:44:25;;;;;;;1999.90;999.90;;;3.70;99.90;;;;;;5115770;28;20023;-80
2021/11/05 05:46:51;;;;;;;1999.90;999.90;;;3.70;99.90;;;;;;5097606;28;20028;-80
2021/11/05 05:49:17;;;;;;;1999.90;999.90;;;3.80;99.90;;;;;;5115456;28;20051;-80
2021/11/05 05:51:43;;;;;;;1999.90;999.90;;;3.90;99.90;;;;;;5115541;28;20035;-82
2021/11/05 05:54:08;;;;;;;1999.90;999.90;;;3.80;99.90;;;;;;5097031;28;20047;-83
2021/11/05 05:56:34;;;;;;;1999.90;999.90;;;3.70;99.90;;;;;;5098387;28;20035;-78
2021/11/05 05:59:00;;;;;;;1999.90;999.90;;;3.80;99.90;;;;;;5114431;28;20425;-83
2021/11/05 06:01:26;;;;;;;1999.90;999.90;;;3.80;99.90;;;;;;5098603;28;20031;-81
2021/11/05 06:03:52;;;;;;;1999.90;999.90;;;3.80;99.90;;;;;;5118959;28;20036;-82
2021/11/05 06:06:17;;;;;;;1999.90;999.90;;;4.70;99.90;;;;;;5097478;28;20032;-83
2021/11/05 06:08:44;;;;;;;1999.90;999.90;;;4.60;99.90;;;;;;5116922;28;20023;-81
2021/11/05 06:11:10;;;;;;;1999.90;999.90;;;4.60;99.90;;;;;;5117136;28;20517;-78
2021/11/05 06:13:36;;;;;;;1999.90;999.90;;;4.50;99.90;;;;;;5097427;28;20047;-83
2021/11/05 06:16:02;;;;;;;1999.90;999.90;;;4.40;99.90;;;;;;5115630;28;20451;-82
2021/11/05 06:18:28;;;;;;;1999.90;999.90;;;4.40;99.90;;;;;;5115376;28;20024;-82
2021/11/05 06:20:54;;;;;;;1999.90;999.90;;;4.30;99.90;;;;;;5115289;28;20118;-83
2021/11/05 06:23:20;;;;;;;1999.90;999.90;;;4.30;99.90;;;;;;5114770;28;20070;-79
2021/11/05 06:25:46;;;;;;;1999.90;999.90;;;4.30;99.90;;;;;;5115140;28;20028;-81
2021/11/05 06:28:12;;;;;;;1999.90;999.90;;;4.30;99.90;;;;;;5115388;28;20371;-81
2021/11/05 06:30:37;;;;;;;1999.90;999.90;;;4.40;99.90;;;;;;5115150;28;20029;-81
2021/11/05 06:33:03;;;;;;;1999.90;999.90;;;4.40;99.90;;;;;;5114803;28;20028;-79
2021/11/05 06:35:29;;;;;;;1999.90;999.90;;;4.50;99.90;;;;;;5114993;28;20028;-79
2021/11/05 06:37:56;;;;;;;1999.90;999.90;;;4.40;99.90;;;;;;5114678;28;20031;-80
2021/11/05 06:40:21;;;;;;;1999.90;999.90;;;4.40;99.90;;;;;;5095856;28;20434;-82
2021/11/05 06:42:47;;;;;;;1999.90;999.90;;;4.50;99.90;;;;;;5114801;28;20019;-83
2021/11/05 06:45:13;;;;;;;1999.90;999.90;;;4.50;99.90;;;;;;5114766;28;20306;-82
2021/11/05 06:47:39;;;;;;;1999.90;999.90;;;4.60;99.90;;;;;;5114779;28;20016;-81
2021/11/05 06:50:07;;;;;;;1999.90;999.90;;;4.60;99.90;;;;;;5114475;28;20533;-79
2021/11/05 06:52:33;;;;;;;1999.90;999.90;;;4.60;99.90;;;;;;5114692;28;20027;-80
2021/11/05 06:54:59;;;;;;;1999.90;999.90;;;4.60;99.90;;;;;;5114443;28;20040;-80
2021/11/05 06:57:24;;;;;;;1999.90;999.90;;;4.60;99.90;;;;;;5114480;28;20062;-85
2021/11/05 06:59:50;;;;;;;1999.90;999.90;;;4.60;99.90;;;;;;5114983;28;20081;-83
2021/11/05 07:02:16;;;;;;;1999.90;999.90;;;4.60;99.90;;;;;;5114665;28;20425;-81
2021/11/05 07:04:41;;;;;;;1999.90;999.90;;;4.60;99.90;;;;;;5114830;28;20470;-85
2021/11/05 07:07:07;;;;;;;1999.90;999.90;;;4.60;99.90;;;;;;5114296;28;20063;-83
2021/11/05 07:09:33;;;;;;;1999.90;999.90;;;4.70;99.90;;;;;;5114996;28;20035;-81
2021/11/05 07:11:59;;;;;;;1999.90;999.90;;;4.80;99.90;;;;;;5096946;28;20016;-82
2021/11/05 07:14:25;;;;;;;1999.90;999.90;;;4.80;99.90;;;;;;5114316;28;20101;-83
2021/11/05 07:16:50;;;;;;;1999.90;999.90;;;4.80;99.90;;;;;;5114080;28;20424;-83
2021/11/05 07:19:18;;;;;;;1999.90;999.90;;;4.90;99.90;;;;;;5114000;28;20106;-83
2021/11/05 07:21:44;;;;;;;1999.90;999.90;;;4.90;99.90;;;;;;5114457;28;20474;-82
2021/11/05 07:24:10;;;;;;;1999.90;999.90;;;5.00;99.90;;;;;;5095988;28;20028;-82
2021/11/05 07:26:44;;;;;;;1999.90;999.90;;;5.00;99.90;;;;;;5095774;28;20035;-83
2021/11/05 07:29:11;;;;;;;1999.90;999.90;;;5.10;99.90;;;;;;5095623;28;20049;-81
2021/11/05 07:31:38;;;;;;;1999.90;999.90;;;5.10;99.90;;;;;;5113921;28;20034;-84
2021/11/05 07:34:04;;;;;;;1999.90;999.90;;;5.00;99.90;;;;;;5113730;28;20036;-82
2021/11/05 07:36:30;;;;;;;1999.90;999.90;;;5.10;99.90;;;;;;5113845;28;20035;-80
2021/11/05 07:38:56;;;;;;;1999.90;999.90;;;5.20;99.90;;;;;;5113681;28;20028;-82
2021/11/05 07:41:24;;;;;;;1999.90;999.90;;;5.30;99.90;;;;;;5114068;28;20439;-84
2021/11/05 07:43:51;;;;;;;1999.90;999.90;;;5.30;99.90;;;;;;5113754;28;20356;-81
2021/11/05 07:46:17;;;;;;;1999.90;999.90;;;5.30;99.90;;;;;;5113538;28;20055;-80
2021/11/05 07:48:42;;;;;;;1999.90;999.90;;;5.40;99.90;;;;;;5095043;28;20089;-84
2021/11/05 07:51:08;;;;;;;1999.90;999.90;;;5.50;99.90;;;;;;5113891;28;20019;-82
2021/11/05 07:53:34;;;;;;;1999.90;999.90;;;5.50;99.90;;;;;;5117791;28;20035;-82
2021/11/05 07:56:00;;;;;;;1999.90;999.90;;;5.60;99.90;;;;;;5118156;28;20474;-81
2021/11/05 07:58:26;;;;;;;1999.90;999.90;;;5.70;99.90;;;;;;5118405;28;20031;-85
2021/11/05 08:00:53;;;;;;;1999.90;999.90;;;5.80;99.90;;;;;;5117925;28;20045;-83
2021/11/05 08:03:18;;;;;;;1999.90;999.90;;;5.80;99.90;;;;;;5099494;28;20062;-81
2021/11/05 08:05:44;;;;;;;1999.90;999.90;;;5.90;99.90;;;;;;5117174;28;20016;-87
2021/11/05 08:08:11;;;;;;;1999.90;999.90;;;5.90;99.90;;;;;;5117776;28;20035;-83
2021/11/05 08:10:37;;;;;;;1999.90;999.90;;;5.80;99.90;;;;;;5099718;28;20051;-81
2021/11/05 08:13:02;;;;;;;1999.90;999.90;;;5.80;99.90;;;;;;5099561;28;20042;-84
2021/11/05 08:15:28;;;;;;;1999.90;999.90;;;5.90;99.90;;;;;;5117150;28;20028;-84
2021/11/05 08:17:54;;;;;;;1999.90;999.90;;;6.00;99.90;;;;;;5099289;28;20371;-82
2021/11/05 08:20:20;;;;;;;1999.90;999.90;;;6.00;99.90;;;;;;5099324;28;20028;-82
2021/11/05 08:22:46;;;;;;;1999.90;999.90;;;6.10;99.90;;;;;;5117736;28;20394;-79
2021/11/05 08:25:14;;;;;;;1999.90;999.90;;;7.30;99.90;;;;;;5098811;28;20104;-82
2021/11/05 08:27:40;;;;;;;1999.90;999.90;;;7.70;99.90;;;;;;5117021;28;20031;-84
2021/11/05 08:30:17;;;;;;;1999.90;999.90;;;7.60;99.90;;;;;;5098117;28;20131;-78
2021/11/05 08:32:44;;;;;;;1999.90;999.90;;;7.60;99.90;;;;;;5098635;28;20448;-81
2021/11/05 08:35:10;;;;;;;1999.90;999.90;;;7.30;99.90;;;;;;5098806;28;20024;-82
2021/11/05 08:37:36;;;;;;;1999.90;999.90;;;7.10;99.90;;;;;;5117065;28;20028;-80
2021/11/05 08:40:04;;;;;;;1999.90;999.90;;;7.10;99.90;;;;;;5098204;28;20486;-81
2021/11/05 08:42:30;;;;;;;1999.90;999.90;;;7.00;99.90;;;;;;5098342;28;20031;-83
2021/11/05 08:44:56;;;;;;;1999.90;999.90;;;6.90;99.90;;;;;;5097883;28;20015;-81
2021/11/05 08:47:21;;;;;;;1999.90;999.90;;;6.90;99.90;;;;;;5098693;28;20020;-80
2021/11/05 08:49:52;;;;;;;1999.90;999.90;;;7.70;99.90;;;;;;5098530;28;20059;-82
2021/11/05 08:52:18;;;;;;;1999.90;999.90;;;9.20;99.90;;;;;;5099281;28;20076;-80
2021/11/05 08:54:43;;;;;;;1999.90;999.90;;;9.80;99.90;;;;;;5117272;28;20023;-85
2021/11/05 08:57:09;;;;;;;1999.90;999.90;;;10.20;99.90;;;;;;5117388;28;20023;-80
2021/11/05 08:59:35;;;;;;;1999.90;999.90;;;10.00;99.90;;;;;;5099675;28;20118;-87
2021/11/05 09:02:02;;;;;;;1999.90;999.90;;;9.40;99.90;;;;;;5100890;28;20177;-83
2021/11/05 09:04:28;;;;;;;1999.90;999.90;;;9.10;99.90;;;;;;5099839;28;20016;-86
2021/11/05 09:06:54;;;;;;;1999.90;999.90;;;8.70;99.90;;;;;;5119158;28;20467;-85
2021/11/05 09:09:21;;;;;;;1999.90;999.90;;;8.40;99.90;;;;;;5100947;28;20027;-85
2021/11/05 09:11:50;;;;;;;1999.90;999.90;;;8.30;99.90;;;;;;5100286;28;20459;-88
2021/11/05 09:14:17;;;;;;;1999.90;999.90;;;8.20;99.90;;;;;;5117259;28;20106;-80
2021/11/05 09:16:43;;;;;;;1999.90;999.90;;;8.10;99.90;;;;;;5116714;28;20058;-82
2021/11/05 09:19:09;;;;;;;1999.90;999.90;;;8.10;99.90;;;;;;5098574;28;20034;-83
2021/11/05 09:21:35;;;;;;;1999.90;999.90;;;8.10;99.90;;;;;;5098342;28;20020;-84
2021/11/05 09:24:03;;;;;;;1999.90;999.90;;;8.20;99.90;;;;;;5098224;28;20032;-81
2021/11/05 09:26:29;;;;;;;1999.90;999.90;;;8.20;99.90;;;;;;5098337;28;20023;-83
2021/11/05 09:28:55;;;;;;;1999.90;999.90;;;8.20;99.90;;;;;;5097974;28;20054;-81
2021/11/05 09:31:22;;;;;;;1999.90;999.90;;;8.30;99.90;;;;;;5098733;28;20027;-82
2021/11/05 09:33:48;;;;;;;1999.90;999.90;;;8.30;99.90;;;;;;5098181;28;20390;-82
2021/11/05 09:36:15;;;;;;;1999.90;999.90;;;8.30;99.90;;;;;;5097902;28;20024;-84
2021/11/05 09:38:42;;;;;;;1999.90;999.90;;;8.40;99.90;;;;;;5097638;28;20387;-81
2021/11/05 09:41:08;;;;;;;1999.90;999.90;;;8.50;99.90;;;;;;5097401;28;20114;-81
2021/11/05 09:43:34;;;;;;;1999.90;999.90;;;8.50;99.90;;;;;;5097329;28;20544;-84
2021/11/05 09:46:00;;;;;;;1999.90;999.90;;;8.50;99.90;;;;;;5097844;28;20110;-82
2021/11/05 09:48:27;;;;;;;1999.90;999.90;;;8.50;99.90;;;;;;5097296;28;20047;-83
2021/11/05 09:50:52;;;;;;;1999.90;999.90;;;8.60;99.90;;;;;;5116133;28;20102;-81
2021/11/05 09:53:18;;;;;;;1999.90;999.90;;;8.70;99.90;;;;;;5097919;28;20118;-84
2021/11/05 09:55:46;;;;;;;1999.90;999.90;;;8.80;99.90;;;;;;5097863;28;20024;-82
2021/11/05 09:58:13;;;;;;;1999.90;999.90;;;8.90;99.90;;;;;;5097659;28;20424;-85
2021/11/05 10:00:39;;;;;;;1999.90;999.90;;;;;;;;;;5097765;28;20047;-84
2021/11/05 10:03:05;;;;;;;1999.90;999.90;;;;;;;;;;5097685;28;20431;-84
2021/11/05 10:05:32;;;;;;;1999.90;999.90;;;;;;;;;;5116028;28;20047;-83
2021/11/05 10:07:59;;;;;;;1999.90;999.90;;;;;;;;;;5097843;28;20027;-86
2021/11/05 10:10:27;;;;;;;1999.90;999.90;;;;;;;;;;5097982;28;20019;-88
2021/11/05 10:12:55;;;;;;;1999.90;999.90;;;;;;;;;;5115919;28;20046;-86
2021/11/05 10:15:26;;;;;;;1999.90;999.90;;;;;;;;;;5096895;28;20058;-83
2021/11/05 10:18:03;;;;;;;1999.90;999.90;;;;;;;;;;5097857;28;20020;-84
2021/11/05 10:20:29;;;;;;;1999.90;999.90;;;;;;;;;;5097437;28;20368;-84
2021/11/05 10:23:00;;;;;;;1999.90;999.90;;;;;;;;;;5097507;28;20034;-84
2021/11/05 10:25:30;;;;;;;1999.90;999.90;;;;;;;;;;5097377;28;20015;-84
2021/11/05 10:28:04;;;;;;;1999.90;999.90;;;;;;;;;;5097520;28;20032;-84
2021/11/05 10:30:31;;;;;;;1999.90;999.90;;;;;;;;;;5097239;28;20027;-83
2021/11/05 10:32:59;;;;;;;1999.90;999.90;;;;;;;;;;5096940;28;20077;-85
2021/11/05 10:35:25;;;;;;;1999.90;999.90;;;;;;;;;;5097150;28;20375;-84
2021/11/05 10:38:01;;;;;;;1999.90;999.90;;;;;;;;;;5097389;28;20481;-83
2021/11/05 10:40:34;;;;;;;1999.90;999.90;;;;;;;;;;5097197;28;20478;-84
2021/11/05 10:43:01;;;;;;;1999.90;999.90;;;;;;;;;;5097226;28;20058;-85
2021/11/05 10:45:27;;;;;;;1999.90;999.90;;;;;;;;;;5097010;28;20401;-82
2021/11/05 10:47:53;;;;;;;1999.90;999.90;;;;;;;;;;5096690;28;20089;-83
2021/11/05 10:50:27;;;;;;;1999.90;999.90;;;;;;;;;;5096999;28;20024;-83
2021/11/05 10:53:04;;;;;;;1999.90;999.90;;;;;;;;;;5115202;28;20024;-84
2021/11/05 10:55:39;;;;;;;1999.90;999.90;;;;;;;;;;5096953;28;20023;-87
2021/11/05 10:58:08;;;;;;;1999.90;999.90;;;;;;;;;;5096969;28;20027;-84
2021/11/05 11:00:35;;;;;;;1999.90;999.90;;;;;;;;;;5096739;28;20024;-83
2021/11/05 11:03:08;;;;;;;1999.90;999.90;;;;;;;;;;5096744;28;20120;-86
2021/11/05 11:05:35;;;;;;;1999.90;999.90;;;;;;;;;;5096703;28;20023;-85
2021/11/05 11:08:02;;;;;;;1999.90;999.90;;;;;;;;;;5096834;28;20128;-83
2021/11/05 11:10:32;;;;;;;1999.90;999.90;;;;;;;;;;5096700;28;20035;-84
2021/11/05 11:12:59;;;;;;;1999.90;999.90;;;;;;;;;;5096375;28;20058;-84
2021/11/05 11:15:32;;;;;;;1999.90;999.90;;;;;;;;;;5096775;28;20493;-85
2021/11/05 11:17:58;;;;;;;1999.90;999.90;;;;;;;;;;5096745;28;20360;-84
2021/11/05 11:20:28;;;;;;;1999.90;999.90;;;;;;;;;;5096617;28;20023;-83
2021/11/05 11:22:54;;;;;;;1999.90;999.90;;;;;;;;;;5096556;28;20470;-84
2021/11/05 11:25:20;;;;;;;1999.90;999.90;;;;;;;;;;5096425;28;20026;-81
2021/11/05 11:27:46;;;;;;;1999.90;999.90;;;;;;;;;;5095685;28;20020;-81
2021/11/05 11:30:12;;;;;;;1999.90;999.90;;;;;;;;;;5095574;28;20485;-83
2021/11/05 11:32:39;;;;;;;1999.90;999.90;;;;;;;;;;5095278;28;20027;-83
2021/11/05 11:35:05;;;;;;;1999.90;999.90;;;;;;;;;;5095741;28;20051;-81
2021/11/05 11:37:34;;;;;;;1999.90;999.90;;;;;;;;;;5095811;28;20072;-81
2021/11/05 11:40:00;;;;;;;1999.90;999.90;;;;;;;;;;5095737;28;20370;-82
2021/11/05 11:42:26;;;;;;;1999.90;999.90;;;;;;;;;;5095693;28;20391;-83
2021/11/05 11:44:52;;;;;;;1999.90;999.90;;;;;;;;;;5095781;28;20107;-82
2021/11/05 11:47:18;;;;;;;1999.90;999.90;;;;;;;;;;5095773;28;20022;-84
2021/11/05 11:49:48;;;;;;;1999.90;999.90;;;;;;;;;;5095710;28;20043;-82
2021/11/05 11:52:21;;;;;;;1999.90;999.90;;;;;;;;;;5095093;28;20045;-82
2021/11/05 11:54:48;;;;;;;1999.90;999.90;;;;;;;;;;5095204;28;20031;-82
2021/11/05 11:57:24;;;;;;;1999.90;999.90;;;;;;;;;;5095700;28;20016;-83
2021/11/05 12:00:09;;;;;;;1999.90;999.90;;;;;;;;;;5095462;28;20023;-81
2021/11/05 12:02:36;;;;;;;1999.90;999.90;;;;;;;;;;5095718;28;20023;-82
2021/11/05 12:05:21;;;;;;;1999.90;999.90;;;;;;;;;;5095071;28;20455;-81
2021/11/05 12:08:05;;;;;;;1999.90;999.90;;;;;;;;;;5095569;28;20031;-81
2021/11/05 12:10:31;;;;;;;1999.90;999.90;;;;;;;;;;5095157;28;20036;-80
2021/11/05 12:12:57;;;;;;;1999.90;999.90;;;;;;;;;;5094935;28;20038;-81
2021/11/05 12:15:24;;;;;;;1999.90;999.90;;;;;;;;;;5095008;28;20020;-85
2021/11/05 12:17:50;;;;;;;1999.90;999.90;;;;;;;;;;5094932;28;20030;-83
2021/11/05 12:20:30;;;;;;;1999.90;999.90;;;;;;;;;;5095441;28;20019;-81